Terminal Aerodrome Forecast
Issued by NWS

Home | Current Version | Previous Version | Text Only | Print | Product List | Glossary On
Versions: 1 2 3 4 5 6 7 8 9 10 11 12 13 14 15 16 17 18 19 20 21 22 23 24 25 26 27 28 29 30 31 32 33 34 35 36 37 38 39 40 41 42 43 44 45 46 47 48 49 50
000
FTAK31 PANC 260025 AAA
TAFATK
TAF AMD
PATK 260025Z 2600/2624 18005KT 3SM -SHSN BR SCT009 OVC015
      TEMPO 2600/2604 1 1/2SM BR BKN009
     FM260600 18008KT 3SM -SHSN SCT015 OVC025
     FM261500 VRB03KT P6SM -SHSN SCT025 BKN035
     FM262000 20005KT 3SM -SHSN BKN025=

USA.gov is the U.S. government's official web portal to all federal, state and local government web resources and services.